RPLB METAR and TAF | Updated Today

RPLB METAR

Subic Bay International Airport

Observation time: 61 min. ago

RPLB 200600Z 23007KT 9999 FEW020 BKN080 30/25 Q1009 NOSIG RMK A2980

Need help? Read our tutorial on how to read METARs or read the parsed version below.

Subic Bay International Airport (RPLB) METAR

  • Weather conditions on Fri, 20 May 2022 06:00:00 +0000 (61 min. ago):
  • Present conditions: Dry
  • Clouds: A few at 610 meters; broken sky at 2438 meters
  • Visibility: Greater than 10 km
  • Wind: 230 degrees at 7 knots
  • Temperature: 30 celsius
  • Dew point: 25 celsius
  • Pressure: 1009 millibars
  • Remarks: A2980


Useful to know...

RPLB TAF

Subic Bay International Airport

TAF RPLB 200500Z 2006/2106 04006KT 9999 FEW020 BKN080 TX31/2006Z TN23/2021Z TEMPO 2006/2012 25008KT 7000 TSRA FEW017CB SCT018 BKN070
Observation time: 2:01 hr. ago
Need help? Read our tutorial on how to read TAFs or read the parsed version below.

Parsed version of TAF for Subic Bay International Airport (RPLB)

  • From 20 May at 06:00 UTC, to day 21 of the month at 06:00 UTC
  • Clouds: A few at 610 meters; broken sky at 2438 meters
  • Visibility: Greater than 10 km
  • Wind: 40 degrees at 6
  • Expected to arise temporarily, from 20 May at 06:00 UTC, to day 20 of the month at 12:00 UTC
  • Clouds: A few at 518 meters, cumulonimbus; scattered at 549 meters; broken sky at 2134 meters
  • Visibility: 7000 meters
  • Wind: 250 degrees at 8
  • Other: Thunderstorms rain